aviador You're here:

CYYT Decoded Metar

ST. JOHN'S in NL, CANADA
Report Time2018-07-20 06:11:00
UTC Time2018-07-20 06:34:50
Flight Rules vfr VFR
Wind260° at 10 Gusting to 16 kt
W.Decomp.*RWY 29: 9.9 kt HW 1.6 kt LCW
RWY 34: 5.2 kt HW 8.6 kt LCW
RWY 20: 1.6 kt HW 9.9 kt RCW
W.Rank260° ranks 1
Current wind is below 260° avg. (15.2)
Visibility9999 m
Phenomena:Light Rain
Clouds:Scattered 005 Hf
Overcast 030 Hf
Ceiling3,000 ft
Temp17°C (ISA +3)
Dew Point17°C (100% RH)
AAT15.8°C
QNH1017 hPa
Density Alt925 ft
Elevation459 ft
Report Wrong Elevation
Raw Report
SPECI CYYT 200611Z 26010G16KT 10SM -RA SCT005 OVC030 17/17 A3004 RMK
SF3SC5 SLP176 DENSITY ALT 700FT=

Extra information for CYYT:More info

Metar Taf Metar & Taf Last 4 Metars F.Rules Stats Wind Profile Meteogram Temp Stats Airport Information Weather charts Add Link Nearby VenuesMetar ALERT Operation Metar Decoded Social comments